Time;durP1;ratioP1;P1;durP2;ratioP2;P2;SDS_P1;SDS_P2;PMS_P1;PMS_P2;Temp;Humidity;BMP_temperature;BMP_pressure;BME280_temperature;BME280_humidity;BME280_pressure;Samples;Min_cycle;Max_cycle;Signal;HPM_P1;HPM_P2
2022/03/25 00:02:06;;;;;;;220.90;121.22;;;5.90;99.90;;;;;;5004674;28;20491;-69
2022/03/25 00:04:32;;;;;;;222.32;122.40;;;5.90;99.90;;;;;;5008609;28;20052;-69
2022/03/25 00:06:57;;;;;;;238.35;125.13;;;5.80;99.90;;;;;;5022430;28;20038;-68
2022/03/25 00:09:24;;;;;;;224.05;126.40;;;5.80;99.90;;;;;;5021240;28;20056;-69
2022/03/25 00:11:50;;;;;;;218.15;117.05;;;5.80;99.90;;;;;;5014460;28;20390;-69
2022/03/25 00:14:16;;;;;;;221.15;123.60;;;5.80;99.90;;;;;;5012026;28;20499;-69
2022/03/25 00:16:43;;;;;;;233.98;127.22;;;5.80;99.90;;;;;;5015507;28;20046;-69
2022/03/25 00:19:09;;;;;;;227.82;128.45;;;5.70;99.90;;;;;;5019854;28;20153;-69
2022/03/25 00:21:36;;;;;;;363.63;146.30;;;5.70;99.90;;;;;;5009745;28;20087;-69
2022/03/25 00:24:02;;;;;;;229.52;126.25;;;5.70;99.90;;;;;;5015009;28;20402;-69
2022/03/25 00:26:27;;;;;;;200.23;113.53;;;5.70;99.90;;;;;;5008669;28;20099;-69
2022/03/25 00:28:53;;;;;;;206.18;113.60;;;5.70;99.90;;;;;;5008984;28;20077;-69
2022/03/25 00:31:20;;;;;;;198.73;110.20;;;5.70;99.90;;;;;;5020543;28;20053;-69
2022/03/25 00:33:49;;;;;;;199.48;110.47;;;5.70;99.90;;;;;;5010046;28;20045;-69
2022/03/25 00:36:17;;;;;;;196.25;110.85;;;5.70;99.90;;;;;;5007599;28;20075;-69
2022/03/25 00:38:43;;;;;;;;;;;5.60;99.90;;;;;;5022229;28;20080;-69
2022/03/25 00:41:12;;;;;;;184.63;105.82;;;5.60;99.90;;;;;;5017482;28;20010;-69
2022/03/25 00:43:38;;;;;;;180.85;107.05;;;5.50;99.90;;;;;;5011318;28;20164;-69
2022/03/25 00:46:04;;;;;;;419.55;141.52;;;5.50;99.90;;;;;;5009167;28;20107;-69
2022/03/25 00:48:32;;;;;;;211.10;117.72;;;5.50;99.90;;;;;;5007458;28;20046;-69
2022/03/25 00:50:58;;;;;;;213.40;113.45;;;5.40;99.90;;;;;;5020258;28;20436;-69
2022/03/25 00:53:25;;;;;;;203.18;112.28;;;5.40;99.90;;;;;;5014817;28;20045;-69
2022/03/25 00:55:52;;;;;;;201.93;117.45;;;5.40;99.90;;;;;;5013352;28;20124;-69
2022/03/25 00:58:18;;;;;;;215.25;120.47;;;5.50;99.90;;;;;;5010873;28;20042;-69
2022/03/25 01:00:45;;;;;;;211.55;115.60;;;5.40;99.90;;;;;;5010974;28;20038;-69
2022/03/25 01:03:11;;;;;;;343.67;138.70;;;5.40;99.90;;;;;;5008091;28;20045;-69
2022/03/25 01:05:36;;;;;;;225.50;121.45;;;5.40;99.90;;;;;;5021135;28;20088;-69
2022/03/25 01:08:03;;;;;;;266.38;123.03;;;5.40;99.90;;;;;;5019829;28;20600;-68
2022/03/25 01:10:29;;;;;;;378.13;132.75;;;5.30;99.90;;;;;;5014933;28;20124;-69
2022/03/25 01:12:54;;;;;;;177.05;103.40;;;5.30;99.90;;;;;;5016574;28;20185;-69
2022/03/25 01:15:20;;;;;;;186.80;105.65;;;5.20;99.90;;;;;;5012460;28;20786;-69
2022/03/25 01:17:46;;;;;;;167.10;94.10;;;5.20;99.90;;;;;;5026603;28;20049;-69
2022/03/25 01:20:11;;;;;;;164.63;95.53;;;5.10;99.90;;;;;;5014738;28;20473;-69
2022/03/25 01:22:37;;;;;;;157.90;92.13;;;5.10;99.90;;;;;;5020543;28;20038;-69
2022/03/25 01:25:04;;;;;;;150.85;92.68;;;5.10;99.90;;;;;;5014073;28;20437;-69
2022/03/25 01:27:30;;;;;;;222.40;111.82;;;5.10;99.90;;;;;;5012109;28;20164;-70
2022/03/25 01:29:55;;;;;;;192.27;105.47;;;5.00;99.90;;;;;;5013373;28;20136;-68
2022/03/25 01:32:23;;;;;;;264.35;121.53;;;5.10;99.90;;;;;;5012300;28;20049;-69
2022/03/25 01:34:49;;;;;;;209.38;113.57;;;5.00;99.90;;;;;;5007554;28;20121;-68
2022/03/25 01:37:14;;;;;;;428.38;139.10;;;5.00;99.90;;;;;;5006440;28;20132;-69
2022/03/25 01:39:40;;;;;;;175.73;102.80;;;5.00;99.90;;;;;;4994017;28;20073;-68
2022/03/25 01:42:06;;;;;;;178.55;99.00;;;4.90;99.90;;;;;;5022369;28;20041;-68
2022/03/25 01:44:31;;;;;;;182.18;105.60;;;4.90;99.90;;;;;;5027004;28;20712;-68
2022/03/25 01:46:59;;;;;;;185.40;105.38;;;4.90;99.90;;;;;;5018440;28;20056;-68
2022/03/25 01:49:26;;;;;;;174.32;100.53;;;4.80;99.90;;;;;;5012230;28;20058;-68
2022/03/25 01:51:56;;;;;;;231.13;108.45;;;4.80;99.90;;;;;;5009570;28;20062;-69
2022/03/25 01:54:28;;;;;;;168.15;97.88;;;4.80;99.90;;;;;;5021099;28;20437;-68
2022/03/25 01:57:03;;;;;;;164.20;96.53;;;4.70;99.90;;;;;;5018811;28;20049;-69
2022/03/25 01:59:29;;;;;;;171.13;97.45;;;4.70;99.90;;;;;;5010369;28;20045;-68
2022/03/25 02:01:55;;;;;;;168.38;94.55;;;4.70;99.90;;;;;;5010893;28;20049;-68
2022/03/25 02:04:22;;;;;;;160.48;93.60;;;4.70;99.90;;;;;;5012364;28;20038;-70
2022/03/25 02:06:48;;;;;;;166.27;93.97;;;4.70;99.90;;;;;;5014616;28;20117;-68
2022/03/25 02:09:14;;;;;;;163.68;93.82;;;4.60;99.90;;;;;;5021972;28;20411;-68
2022/03/25 02:11:40;;;;;;;155.18;89.68;;;4.60;99.90;;;;;;5010998;28;20053;-68
2022/03/25 02:14:07;;;;;;;140.32;84.20;;;4.50;99.90;;;;;;5011848;28;20773;-68
2022/03/25 02:16:40;;;;;;;151.45;84.68;;;4.50;99.90;;;;;;5010883;28;20046;-68
2022/03/25 02:19:08;;;;;;;138.23;84.30;;;4.40;99.90;;;;;;5013847;28;20045;-68
2022/03/25 02:21:38;;;;;;;145.63;86.13;;;4.40;99.90;;;;;;5006762;28;20057;-68
2022/03/25 02:24:05;;;;;;;147.27;89.40;;;4.40;99.90;;;;;;5019606;28;20047;-68
2022/03/25 02:26:33;;;;;;;158.73;88.00;;;4.30;99.90;;;;;;5010202;28;20046;-68
2022/03/25 02:29:00;;;;;;;135.15;81.85;;;4.30;99.90;;;;;;5010091;28;20042;-68
2022/03/25 02:31:26;;;;;;;148.10;82.68;;;4.20;99.90;;;;;;5015279;28;20045;-68
2022/03/25 02:34:03;;;;;;;132.60;80.50;;;4.20;99.90;;;;;;5010712;28;20050;-68
2022/03/25 02:36:34;;;;;;;191.60;91.38;;;4.30;99.90;;;;;;5010081;28;20050;-67
2022/03/25 02:39:00;;;;;;;170.68;88.47;;;4.20;99.90;;;;;;5022084;28;20074;-68
2022/03/25 02:41:26;;;;;;;193.75;88.28;;;4.20;99.90;;;;;;5009691;28;20084;-68
2022/03/25 02:43:52;;;;;;;149.52;86.93;;;4.10;99.90;;;;;;5013911;28;20152;-68
2022/03/25 02:46:17;;;;;;;197.30;94.22;;;4.10;99.90;;;;;;5017908;28;20086;-67
2022/03/25 02:48:43;;;;;;;138.32;82.43;;;4.00;99.90;;;;;;5013124;28;20468;-67
2022/03/25 02:51:08;;;;;;;143.60;84.55;;;4.00;99.90;;;;;;5018090;28;20054;-67
2022/03/25 02:53:34;;;;;;;144.80;82.75;;;4.00;99.90;;;;;;5023079;28;20506;-67
2022/03/25 02:56:00;;;;;;;183.63;92.43;;;4.00;99.90;;;;;;5018741;28;20048;-67
2022/03/25 02:58:25;;;;;;;144.55;87.35;;;4.00;99.90;;;;;;5014551;28;20073;-67
2022/03/25 03:00:51;;;;;;;194.18;85.93;;;4.00;99.90;;;;;;5011909;28;20585;-67
2022/03/25 03:03:17;;;;;;;313.90;114.35;;;4.00;99.90;;;;;;5009766;28;20133;-67
2022/03/25 03:05:43;;;;;;;149.00;88.30;;;4.00;99.90;;;;;;5023634;28;20041;-67
2022/03/25 03:08:09;;;;;;;216.80;95.85;;;4.00;99.90;;;;;;5017815;28;20067;-67
2022/03/25 03:10:35;;;;;;;153.30;87.72;;;4.00;99.90;;;;;;5009531;28;20038;-67
2022/03/25 03:13:02;;;;;;;161.13;87.18;;;4.00;99.90;;;;;;5013578;28;20053;-67
2022/03/25 03:15:28;;;;;;;140.45;85.20;;;4.00;99.90;;;;;;5008417;28;20045;-67
2022/03/25 03:17:54;;;;;;;146.15;81.93;;;4.00;99.90;;;;;;5008580;28;20049;-67
2022/03/25 03:20:21;;;;;;;136.07;85.00;;;4.00;99.90;;;;;;5005804;28;20056;-67
2022/03/25 03:22:47;;;;;;;162.77;88.13;;;4.00;99.90;;;;;;5017371;28;20125;-67
2022/03/25 03:25:13;;;;;;;144.48;84.60;;;4.00;99.90;;;;;;5011509;28;20621;-67
2022/03/25 03:27:39;;;;;;;150.48;86.00;;;3.90;99.90;;;;;;5009186;28;20117;-67
2022/03/25 03:30:08;;;;;;;140.32;83.20;;;4.00;99.90;;;;;;5017509;28;20420;-67
2022/03/25 03:32:35;;;;;;;133.13;81.90;;;3.90;99.90;;;;;;5016182;28;20117;-67
2022/03/25 03:35:01;;;;;;;132.57;82.38;;;3.90;99.90;;;;;;5015588;28;20053;-67
2022/03/25 03:37:27;;;;;;;137.02;81.82;;;3.90;99.90;;;;;;5021837;28;20061;-67
2022/03/25 03:39:53;;;;;;;140.40;83.75;;;3.90;99.90;;;;;;5004007;28;20052;-67
2022/03/25 03:42:19;;;;;;;155.18;91.50;;;3.80;99.90;;;;;;5017236;28;20049;-67
2022/03/25 03:44:45;;;;;;;153.55;91.30;;;3.80;99.90;;;;;;5009297;28;20053;-67
2022/03/25 03:47:11;;;;;;;147.45;87.35;;;3.70;99.90;;;;;;5009295;28;20066;-67
2022/03/25 03:49:37;;;;;;;345.40;109.93;;;3.70;99.90;;;;;;5021932;28;20172;-67
2022/03/25 03:52:05;;;;;;;144.80;88.07;;;3.70;99.90;;;;;;5008190;28;20042;-68
2022/03/25 03:54:32;;;;;;;140.75;83.43;;;3.70;99.90;;;;;;5022763;28;20050;-67
2022/03/25 03:56:58;;;;;;;427.77;128.38;;;3.80;99.90;;;;;;5009209;28;20183;-67
2022/03/25 03:59:25;;;;;;;141.38;85.78;;;3.70;99.90;;;;;;5009669;28;20053;-67
2022/03/25 04:01:50;;;;;;;127.97;80.40;;;3.70;99.90;;;;;;5012677;28;20046;-67
2022/03/25 04:04:17;;;;;;;432.27;107.20;;;3.80;99.90;;;;;;5007182;28;20099;-67
2022/03/25 04:06:44;;;;;;;131.10;77.18;;;3.70;99.90;;;;;;5010114;28;20092;-67
2022/03/25 04:09:10;;;;;;;284.35;97.38;;;3.70;99.90;;;;;;5009474;28;20049;-68
2022/03/25 04:11:36;;;;;;;135.32;79.97;;;3.60;99.90;;;;;;5007921;28;20045;-67
2022/03/25 04:14:02;;;;;;;135.10;81.35;;;3.70;99.90;;;;;;4990532;28;20094;-67
2022/03/25 04:16:29;;;;;;;136.80;76.88;;;3.60;99.90;;;;;;4988981;28;20043;-67
2022/03/25 04:18:57;;;;;;;134.18;79.60;;;3.60;99.90;;;;;;5009842;28;20048;-67
2022/03/25 04:21:22;;;;;;;123.88;75.53;;;3.70;99.90;;;;;;5007233;28;20041;-67
2022/03/25 04:23:48;;;;;;;228.43;83.65;;;3.60;99.90;;;;;;5019145;28;20046;-67
2022/03/25 04:26:14;;;;;;;113.55;71.60;;;3.60;99.90;;;;;;5009073;28;20042;-67
2022/03/25 04:28:40;;;;;;;114.43;67.82;;;3.60;99.90;;;;;;5008757;28;20487;-67
2022/03/25 04:31:06;;;;;;;124.93;69.60;;;3.60;99.90;;;;;;5021223;28;20042;-67
2022/03/25 04:33:34;;;;;;;104.80;65.60;;;3.60;99.90;;;;;;5009071;28;20102;-67
2022/03/25 04:36:00;;;;;;;103.57;64.07;;;3.60;99.90;;;;;;5008379;28;20527;-67
2022/03/25 04:38:26;;;;;;;210.70;80.28;;;3.60;99.90;;;;;;5009386;28;20285;-67
2022/03/25 04:40:52;;;;;;;159.20;73.72;;;3.50;99.90;;;;;;5008144;28;20487;-67
2022/03/25 04:43:18;;;;;;;119.63;70.20;;;3.50;99.90;;;;;;5014666;28;20044;-67
2022/03/25 04:45:44;;;;;;;116.35;69.32;;;3.50;99.90;;;;;;5006479;28;20062;-67
2022/03/25 04:48:11;;;;;;;119.05;69.20;;;3.50;99.90;;;;;;5015638;28;20265;-67
2022/03/25 04:50:37;;;;;;;306.23;86.18;;;3.50;99.90;;;;;;5013737;28;20783;-67
2022/03/25 04:53:06;;;;;;;104.10;66.45;;;3.50;99.90;;;;;;4992268;28;20057;-67
2022/03/25 04:55:31;;;;;;;189.98;73.07;;;3.40;99.90;;;;;;5012379;28;20495;-67
2022/03/25 04:57:57;;;;;;;109.95;67.32;;;3.40;99.90;;;;;;5016256;28;20144;-67
2022/03/25 05:00:23;;;;;;;100.65;65.05;;;3.20;99.90;;;;;;5020137;28;20057;-67
2022/03/25 05:02:49;;;;;;;102.80;64.82;;;3.30;99.90;;;;;;5013670;28;20411;-67
2022/03/25 05:05:15;;;;;;;136.98;67.55;;;3.20;99.90;;;;;;5016476;28;20121;-67
2022/03/25 05:07:43;;;;;;;196.95;76.53;;;3.10;99.90;;;;;;5010882;28;20483;-67
2022/03/25 05:10:10;;;;;;;103.38;65.95;;;3.10;99.90;;;;;;5020224;28;20491;-67
2022/03/25 05:12:38;;;;;;;462.38;107.82;;;3.10;99.90;;;;;;5007012;28;20083;-67
2022/03/25 05:15:04;;;;;;;145.98;71.68;;;3.10;99.90;;;;;;5009703;28;20046;-66
2022/03/25 05:17:30;;;;;;;114.18;70.68;;;2.90;99.90;;;;;;5017303;28;20411;-68
2022/03/25 05:19:56;;;;;;;110.68;64.72;;;2.90;99.90;;;;;;5011885;28;20037;-66
2022/03/25 05:22:22;;;;;;;148.07;72.15;;;2.90;99.90;;;;;;5014889;28;20046;-67
2022/03/25 05:24:49;;;;;;;302.42;92.30;;;2.90;99.90;;;;;;5025496;28;20433;-67
2022/03/25 05:27:17;;;;;;;392.65;106.32;;;2.90;99.90;;;;;;5012141;28;20562;-67
2022/03/25 05:29:43;;;;;;;113.57;68.68;;;2.90;99.90;;;;;;5019925;28;20051;-67
2022/03/25 05:32:09;;;;;;;130.38;69.03;;;2.90;99.90;;;;;;5012308;28;20046;-67
2022/03/25 05:34:35;;;;;;;102.60;64.13;;;2.90;99.90;;;;;;5012381;28;20057;-67
2022/03/25 05:37:01;;;;;;;344.40;97.05;;;2.80;99.90;;;;;;5011535;28;20053;-67
2022/03/25 05:39:27;;;;;;;110.15;62.35;;;2.70;99.90;;;;;;5011043;28;20042;-67
2022/03/25 05:41:53;;;;;;;88.65;57.65;;;2.70;99.90;;;;;;5011022;28;20034;-67
2022/03/25 05:44:19;;;;;;;224.32;79.03;;;2.70;99.90;;;;;;5011020;28;20373;-67
2022/03/25 05:46:45;;;;;;;262.45;83.85;;;2.60;99.90;;;;;;5010414;28;20050;-67
2022/03/25 05:49:11;;;;;;;89.88;57.03;;;2.50;99.90;;;;;;5010785;28;20088;-68
2022/03/25 05:51:37;;;;;;;86.20;58.55;;;2.50;99.90;;;;;;5017544;28;20045;-67
2022/03/25 05:54:02;;;;;;;84.65;55.05;;;2.50;99.90;;;;;;5015458;28;20038;-67
2022/03/25 05:56:28;;;;;;;83.90;55.08;;;2.50;99.90;;;;;;5011000;28;20049;-67
2022/03/25 05:58:54;;;;;;;84.15;55.60;;;2.60;99.90;;;;;;5023762;28;20038;-67
2022/03/25 06:01:19;;;;;;;122.72;63.33;;;2.60;99.90;;;;;;5011032;28;20495;-67
2022/03/25 06:03:45;;;;;;;101.22;59.08;;;2.60;99.90;;;;;;5008092;28;20046;-67
2022/03/25 06:06:11;;;;;;;83.18;54.85;;;2.60;99.90;;;;;;4999757;28;20041;-67
2022/03/25 06:08:36;;;;;;;71.63;50.03;;;2.60;99.90;;;;;;5010316;28;20046;-68
2022/03/25 06:11:02;;;;;;;80.68;53.75;;;2.60;99.90;;;;;;5010477;28;20068;-67
2022/03/25 06:13:28;;;;;;;73.88;51.15;;;2.70;99.90;;;;;;5006205;28;20037;-67
2022/03/25 06:15:54;;;;;;;80.75;54.25;;;2.80;99.90;;;;;;5020773;28;20499;-68
2022/03/25 06:18:21;;;;;;;86.75;52.05;;;2.80;99.90;;;;;;5010193;28;20081;-71
2022/03/25 06:20:47;;;;;;;121.95;62.80;;;2.90;99.90;;;;;;5009537;28;20042;-70
2022/03/25 06:23:13;;;;;;;180.38;73.70;;;2.90;99.90;;;;;;5011234;28;20120;-71
2022/03/25 06:25:39;;;;;;;90.35;58.28;;;2.90;99.90;;;;;;5011245;28;20033;-69
2022/03/25 06:28:06;;;;;;;173.23;69.45;;;2.90;99.90;;;;;;5011493;28;20049;-72
2022/03/25 06:30:36;;;;;;;94.40;60.00;;;3.00;99.90;;;;;;5017451;28;20567;-68
2022/03/25 06:33:06;;;;;;;105.00;63.55;;;3.00;99.90;;;;;;5012846;28;20038;-70
2022/03/25 06:35:34;;;;;;;83.18;55.90;;;3.10;99.90;;;;;;5012973;28;20081;-69
2022/03/25 06:38:04;;;;;;;85.20;55.30;;;3.20;99.90;;;;;;5011126;28;20137;-70
2022/03/25 06:40:30;;;;;;;100.40;59.53;;;3.30;99.90;;;;;;5010963;28;20054;-69
2022/03/25 06:42:57;;;;;;;83.85;54.50;;;3.40;99.90;;;;;;5011472;28;20539;-69
2022/03/25 06:45:24;;;;;;;81.15;55.42;;;3.50;99.90;;;;;;5018501;28;20256;-68
2022/03/25 06:47:50;;;;;;;84.45;55.85;;;3.60;99.90;;;;;;5012731;28;20042;-68
2022/03/25 06:50:17;;;;;;;87.63;55.97;;;3.80;99.90;;;;;;5015461;28;20442;-67
2022/03/25 06:52:45;;;;;;;86.20;56.55;;;3.90;99.90;;;;;;5009760;28;20045;-67
2022/03/25 06:55:12;;;;;;;92.32;57.85;;;4.00;99.90;;;;;;5023018;28;20121;-68
2022/03/25 06:57:39;;;;;;;101.53;61.45;;;4.20;99.90;;;;;;5010050;28;20050;-68
2022/03/25 07:00:06;;;;;;;114.63;68.60;;;4.30;99.90;;;;;;5014150;28;20049;-68
2022/03/25 07:02:32;;;;;;;133.25;75.70;;;4.50;99.90;;;;;;5011205;28;20050;-68
2022/03/25 07:04:58;;;;;;;132.13;77.13;;;4.70;99.90;;;;;;5009957;28;20212;-68
2022/03/25 07:07:26;;;;;;;150.88;86.25;;;4.90;99.90;;;;;;5020072;28;20057;-68
2022/03/25 07:09:53;;;;;;;137.73;83.40;;;5.10;99.90;;;;;;5008780;28;20051;-68
2022/03/25 07:12:20;;;;;;;153.00;85.72;;;5.30;99.90;;;;;;5009347;28;20112;-68
2022/03/25 07:14:45;;;;;;;139.20;81.78;;;5.50;99.90;;;;;;5004067;28;20049;-68
2022/03/25 07:17:11;;;;;;;142.20;83.82;;;5.80;99.90;;;;;;5012651;28;20049;-68
2022/03/25 07:19:37;;;;;;;138.85;79.93;;;6.00;99.90;;;;;;5015298;28;20033;-68
2022/03/25 07:22:03;;;;;;;141.48;81.07;;;6.30;99.90;;;;;;5009046;28;20052;-69
2022/03/25 07:24:29;;;;;;;138.57;77.40;;;6.50;99.90;;;;;;5009674;28;20038;-68
2022/03/25 07:26:55;;;;;;;133.85;79.95;;;6.70;99.90;;;;;;5006111;28;20076;-68
2022/03/25 07:29:21;;;;;;;130.88;82.57;;;6.80;99.90;;;;;;5010097;28;20530;-68
2022/03/25 07:31:47;;;;;;;138.38;77.05;;;7.00;99.90;;;;;;5001557;28;20042;-68
2022/03/25 07:34:13;;;;;;;146.05;77.40;;;7.20;99.90;;;;;;5006850;28;20064;-69
2022/03/25 07:36:40;;;;;;;133.50;77.72;;;7.50;99.90;;;;;;5008771;28;20042;-68
2022/03/25 07:39:06;;;;;;;134.18;74.90;;;7.40;99.90;;;;;;5007570;28;20052;-68
2022/03/25 07:41:31;;;;;;;122.88;72.75;;;7.70;99.90;;;;;;5020391;28;20473;-68
2022/03/25 07:43:57;;;;;;;123.78;73.32;;;7.90;99.90;;;;;;5011429;28;20530;-67
2022/03/25 07:46:27;;;;;;;116.30;71.80;;;8.10;99.90;;;;;;5008333;28;20064;-68
2022/03/25 07:48:52;;;;;;;123.40;76.68;;;8.30;99.90;;;;;;5008557;28;20050;-67
2022/03/25 07:51:18;;;;;;;115.50;72.68;;;8.40;99.90;;;;;;5008651;28;20126;-69
2022/03/25 07:53:44;;;;;;;121.80;73.93;;;8.60;99.90;;;;;;5010086;28;20092;-68
2022/03/25 07:56:11;;;;;;;119.57;71.72;;;8.60;99.90;;;;;;5004848;28;20037;-66
2022/03/25 07:58:37;;;;;;;113.30;65.38;;;8.70;99.90;;;;;;4983726;28;20053;-67
2022/03/25 08:01:03;;;;;;;137.98;68.25;;;8.70;99.90;;;;;;5010942;28;20684;-66
2022/03/25 08:03:30;;;;;;;107.95;71.10;;;8.90;99.90;;;;;;5014436;28;20054;-67
2022/03/25 08:05:55;;;;;;;125.03;72.40;;;9.00;99.90;;;;;;5007550;28;20065;-67
2022/03/25 08:08:22;;;;;;;111.75;69.47;;;9.30;99.90;;;;;;5013169;28;20092;-66
2022/03/25 08:10:48;;;;;;;117.93;71.05;;;9.40;99.90;;;;;;5020832;28;20168;-66
2022/03/25 08:13:16;;;;;;;119.13;68.70;;;9.60;99.90;;;;;;5009844;28;20073;-66
2022/03/25 08:15:42;;;;;;;113.53;68.38;;;9.70;99.90;;;;;;5020491;28;20037;-67
2022/03/25 08:18:10;;;;;;;119.38;67.60;;;9.60;99.90;;;;;;5009851;28;20080;-68
2022/03/25 08:20:44;;;;;;;120.45;70.97;;;9.80;99.90;;;;;;5005079;28;20503;-69
2022/03/25 08:23:12;;;;;;;113.00;67.75;;;9.90;99.90;;;;;;5011541;28;20038;-68
2022/03/25 08:28:26;;;;;;;116.68;68.75;;;10.10;99.90;;;;;;5004242;28;20089;-68
2022/03/25 08:30:52;;;;;;;113.22;65.30;;;10.10;99.90;;;;;;5007974;28;20137;-69
2022/03/25 08:33:18;;;;;;;120.70;70.72;;;10.30;99.90;;;;;;5004311;28;20049;-69
2022/03/25 08:35:44;;;;;;;116.88;68.95;;;10.40;99.90;;;;;;5000190;28;20038;-69
2022/03/25 08:38:12;;;;;;;103.95;63.63;;;10.60;99.90;;;;;;5010114;28;20447;-69
2022/03/25 08:40:40;;;;;;;107.25;62.22;;;10.70;99.90;;;;;;5011217;28;20446;-68
2022/03/25 08:43:06;;;;;;;105.38;59.17;;;10.80;99.90;;;;;;5018875;28;20039;-70
2022/03/25 08:45:33;;;;;;;105.70;60.70;;;10.90;99.90;;;;;;5003311;28;20185;-68
2022/03/25 08:47:59;;;;;;;104.53;60.80;;;10.90;99.90;;;;;;5002776;28;20042;-67
2022/03/25 08:50:25;;;;;;;99.13;57.33;;;11.00;99.90;;;;;;5007437;28;20156;-67
2022/03/25 08:52:52;;;;;;;102.30;56.42;;;11.10;99.90;;;;;;5009269;28;20052;-68
2022/03/25 08:55:20;;;;;;;109.03;59.28;;;11.20;99.90;;;;;;5021729;28;20096;-67
2022/03/25 08:57:47;;;;;;;96.50;53.33;;;11.30;99.90;;;;;;5008923;28;20048;-68
2022/03/25 09:00:14;;;;;;;102.18;58.30;;;11.40;99.90;;;;;;5007000;28;20045;-68
2022/03/25 09:02:43;;;;;;;104.65;57.03;;;11.50;99.90;;;;;;5015468;28;20045;-67
2022/03/25 09:05:12;;;;;;;97.10;53.90;;;11.60;99.90;;;;;;5013453;28;20100;-68
2022/03/25 09:07:38;;;;;;;95.95;55.90;;;11.80;99.90;;;;;;5016922;28;20057;-68
2022/03/25 09:10:09;;;;;;;96.35;52.80;;;11.90;99.90;;;;;;5012345;28;20526;-67
2022/03/25 09:12:35;;;;;;;90.07;50.58;;;12.10;99.90;;;;;;5007841;28;20081;-67
2022/03/25 09:15:02;;;;;;;93.63;54.17;;;12.10;99.90;;;;;;5007865;28;20409;-66
2022/03/25 09:17:28;;;;;;;91.50;52.05;;;12.20;99.90;;;;;;5013256;28;20115;-66
2022/03/25 09:19:54;;;;;;;95.65;53.75;;;12.40;99.90;;;;;;5011163;28;20496;-67
2022/03/25 09:22:20;;;;;;;103.28;54.15;;;12.40;99.90;;;;;;5008010;28;20510;-66
2022/03/25 09:24:46;;;;;;;90.50;52.00;;;12.50;99.00;;;;;;5008126;28;20420;-67
2022/03/25 09:27:12;;;;;;;95.38;54.13;;;12.60;98.50;;;;;;5008404;28;20038;-66
2022/03/25 09:29:38;;;;;;;98.35;54.85;;;12.70;97.40;;;;;;5007127;28;20045;-66
2022/03/25 09:32:04;;;;;;;92.82;54.65;;;12.70;96.40;;;;;;5007504;28;20050;-66
2022/03/25 09:37:14;;;;;;;102.53;52.75;;;12.80;94.90;;;;;;5008463;28;20050;-66
2022/03/25 09:39:40;;;;;;;94.20;52.65;;;12.90;94.40;;;;;;5009217;28;20121;-66
2022/03/25 09:42:07;;;;;;;92.95;51.95;;;12.90;93.60;;;;;;5011451;28;20180;-66
2022/03/25 09:44:34;;;;;;;78.13;46.70;;;12.90;93.50;;;;;;5011243;28;20128;-66
2022/03/25 09:47:03;;;;;;;88.82;48.42;;;13.00;90.50;;;;;;5011178;28;20054;-65
2022/03/25 09:49:30;;;;;;;99.40;51.17;;;13.10;90.20;;;;;;5010848;28;20046;-66
2022/03/25 09:51:59;;;;;;;100.18;54.10;;;13.20;88.40;;;;;;5011435;28;20050;-66
2022/03/25 09:54:26;;;;;;;84.90;50.60;;;13.20;88.70;;;;;;5011025;28;20112;-65
2022/03/25 09:56:51;;;;;;;93.30;52.20;;;13.20;87.90;;;;;;5011367;28;20049;-67
2022/03/25 09:59:18;;;;;;;89.10;50.72;;;13.30;86.40;;;;;;5010431;28;20041;-67
2022/03/25 10:01:43;;;;;;;84.70;50.70;;;13.40;87.00;;;;;;5024107;28;20041;-66
2022/03/25 10:04:30;;;;;;;91.05;49.88;;;13.50;85.20;;;;;;5011261;28;20049;-67
2022/03/25 10:06:56;;;;;;;82.60;50.50;;;13.50;83.30;;;;;;5009929;28;20053;-66
2022/03/25 10:09:22;;;;;;;84.30;47.03;;;13.70;83.70;;;;;;5009877;28;20057;-67
2022/03/25 10:11:47;;;;;;;91.43;48.22;;;13.80;80.40;;;;;;5018450;28;20038;-67
2022/03/25 10:14:23;;;;;;;87.05;47.22;;;13.90;80.10;;;;;;5010898;28;20046;-67
2022/03/25 10:16:53;;;;;;;90.85;49.58;;;14.10;78.10;;;;;;5011333;28;20495;-67
2022/03/25 10:19:23;;;;;;;79.93;46.72;;;14.20;78.60;;;;;;4997764;28;20122;-67
2022/03/25 10:21:52;;;;;;;82.25;47.30;;;14.30;76.90;;;;;;5010442;28;20117;-66
2022/03/25 10:24:34;;;;;;;79.60;43.95;;;14.40;75.50;;;;;;5022993;28;20045;-68
2022/03/25 10:27:04;;;;;;;91.32;44.78;;;14.50;75.30;;;;;;5008853;28;20041;-68
2022/03/25 10:29:30;;;;;;;77.57;40.22;;;14.60;70.70;;;;;;5007720;28;20458;-69
2022/03/25 10:32:10;;;;;;;74.55;44.22;;;14.60;70.40;;;;;;5007878;28;20053;-68
2022/03/25 10:34:41;;;;;;;79.53;42.22;;;14.70;68.00;;;;;;5007929;28;20073;-67
2022/03/25 10:37:11;;;;;;;97.00;43.15;;;14.90;69.60;;;;;;5020235;28;20049;-68
2022/03/25 10:39:37;;;;;;;87.82;45.85;;;14.90;69.10;;;;;;5009899;28;20129;-68
2022/03/25 10:42:05;;;;;;;86.50;41.80;;;15.10;70.20;;;;;;5013777;28;20041;-68
2022/03/25 10:44:37;;;;;;;71.30;36.92;;;15.30;69.10;;;;;;5013046;28;20049;-68
2022/03/25 10:47:31;;;;;;;77.07;38.17;;;15.40;64.20;;;;;;5014890;28;20088;-67
2022/03/25 10:50:12;;;;;;;66.13;37.58;;;15.40;62.00;;;;;;5012465;28;20096;-66
2022/03/25 10:52:38;;;;;;;69.72;37.35;;;15.30;62.20;;;;;;5020858;28;20081;-68
2022/03/25 10:55:20;;;;;;;71.15;40.42;;;15.30;62.70;;;;;;5002707;28;20093;-68
2022/03/25 10:57:56;;;;;;;70.20;37.00;;;15.40;60.50;;;;;;5020602;28;20053;-68
2022/03/25 11:00:26;;;;;;;86.38;43.03;;;15.40;60.00;;;;;;4997667;28;20560;-67
2022/03/25 11:02:53;;;;;;;76.70;37.80;;;15.40;63.60;;;;;;5010404;28;20038;-68
2022/03/25 11:05:19;;;;;;;82.07;37.78;;;15.50;61.20;;;;;;5009381;28;20054;-67
2022/03/25 11:07:46;;;;;;;79.68;39.85;;;15.60;61.80;;;;;;5008093;28;20573;-67
2022/03/25 11:10:14;;;;;;;77.32;40.42;;;15.60;61.60;;;;;;5008924;28;20079;-67
2022/03/25 11:12:45;;;;;;;83.47;42.55;;;15.60;61.60;;;;;;5010795;28;20054;-67
2022/03/25 11:15:15;;;;;;;86.32;44.00;;;15.80;61.70;;;;;;5020931;28;20243;-68
2022/03/25 11:17:42;;;;;;;86.35;41.58;;;15.90;61.10;;;;;;5014423;28;20115;-67
2022/03/25 11:20:13;;;;;;;88.45;42.58;;;15.90;60.80;;;;;;5007559;28;20038;-67
2022/03/25 11:22:46;;;;;;;84.72;41.35;;;15.90;59.70;;;;;;5012113;28;20482;-68
2022/03/25 11:25:16;;;;;;;73.93;42.95;;;16.10;61.50;;;;;;5016173;28;20045;-68
2022/03/25 11:27:53;;;;;;;74.47;41.85;;;16.10;60.60;;;;;;5008814;28;20049;-68
2022/03/25 11:30:19;;;;;;;72.13;37.83;;;16.10;58.90;;;;;;5007333;28;20073;-68
2022/03/25 11:33:10;;;;;;;80.85;43.55;;;16.20;59.00;;;;;;5014757;28;20052;-69
2022/03/25 11:35:42;;;;;;;76.78;41.55;;;16.40;60.60;;;;;;5010288;28;20061;-68
2022/03/25 11:38:14;;;;;;;77.07;39.92;;;16.60;60.70;;;;;;5009153;28;20049;-68
2022/03/25 11:40:42;;;;;;;89.10;43.45;;;16.90;60.80;;;;;;5018172;28;20071;-68
2022/03/25 11:43:25;;;;;;;82.57;43.47;;;17.00;59.50;;;;;;5009967;28;20050;-68
2022/03/25 11:46:00;;;;;;;86.88;41.25;;;17.00;58.50;;;;;;5002775;28;20143;-68
2022/03/25 11:48:25;;;;;;;91.15;45.50;;;16.90;56.70;;;;;;5011427;28;20168;-67
2022/03/25 11:50:54;;;;;;;80.95;44.60;;;17.00;59.90;;;;;;5021058;28;20121;-67
2022/03/25 11:53:22;;;;;;;81.43;46.03;;;17.30;61.30;;;;;;5020668;28;20048;-67
2022/03/25 11:55:59;;;;;;;;;;;17.40;59.90;;;;;;5017385;28;20046;-67
2022/03/25 11:58:25;;;;;;;93.28;47.58;;;17.40;55.80;;;;;;5011779;28;19925;-66
2022/03/25 12:00:56;;;;;;;79.82;42.38;;;17.30;60.00;;;;;;5019294;28;20045;-67
2022/03/25 12:03:43;;;;;;;91.03;46.80;;;17.60;59.80;;;;;;5015058;28;20041;-68
2022/03/25 12:06:11;;;;;;;88.55;48.38;;;17.50;57.50;;;;;;5009987;28;20088;-69
2022/03/25 12:08:39;;;;;;;87.72;49.45;;;17.60;58.90;;;;;;5009132;28;20054;-68
2022/03/25 12:11:08;;;;;;;88.68;44.95;;;17.80;58.90;;;;;;5007311;28;20049;-68
2022/03/25 12:13:53;;;;;;;91.63;47.70;;;17.70;57.70;;;;;;5007765;28;20423;-69
2022/03/25 12:16:44;;;;;;;91.65;48.13;;;17.90;58.70;;;;;;5007798;28;20049;-68
2022/03/25 12:19:25;;;;;;;84.85;48.13;;;18.20;59.70;;;;;;5013868;28;20053;-68
2022/03/25 12:21:55;;;;;;;67.05;37.95;;;18.30;57.70;;;;;;5008236;28;20064;-68
2022/03/25 12:24:21;;;;;;;85.95;46.35;;;18.30;56.90;;;;;;5008583;28;20162;-68
2022/03/25 12:26:55;;;;;;;85.07;43.63;;;18.30;55.50;;;;;;5009166;28;20096;-68
2022/03/25 12:29:29;;;;;;;94.60;42.55;;;18.10;54.30;;;;;;5012289;28;20084;-69
2022/03/25 12:31:55;;;;;;;77.03;41.97;;;17.80;55.30;;;;;;5016103;28;20046;-68
2022/03/25 12:34:40;;;;;;;68.25;36.88;;;17.60;55.10;;;;;;4978493;28;20129;-68